Time;durP1;ratioP1;P1;durP2;ratioP2;P2;SDS_P1;SDS_P2;PMS_P1;PMS_P2;Temp;Humidity;BMP_temperature;BMP_pressure;BME280_temperature;BME280_humidity;BME280_pressure;Samples;Min_cycle;Max_cycle;Signal;HPM_P1;HPM_P2
2021/12/05 00:17:40;;;;;;;2.22;1.05;;;4.60;93.40;;;;;;5010794;28;20567;-76
2021/12/05 00:22:41;;;;;;;2.10;0.80;;;4.60;93.30;;;;;;5011790;28;20048;-75
2021/12/05 00:25:11;;;;;;;1.90;0.80;;;4.60;93.30;;;;;;4980001;28;20029;-76
2021/12/05 00:27:44;;;;;;;2.25;1.08;;;4.60;93.30;;;;;;5013057;28;20068;-76
2021/12/05 00:30:39;;;;;;;1.45;0.82;;;4.60;93.30;;;;;;5012376;28;20195;-76
2021/12/05 00:33:21;;;;;;;2.60;0.82;;;4.60;93.30;;;;;;5011575;28;20092;-75
2021/12/05 00:39:08;;;;;;;;;;;4.50;93.30;;;;;;5014500;28;20057;-76
2021/12/05 00:52:18;;;;;;;2.22;1.10;;;4.40;93.30;;;;;;5009455;28;20485;-76
2021/12/05 00:55:22;;;;;;;1.15;0.80;;;4.50;93.30;;;;;;5015204;28;20046;-76
2021/12/05 00:57:44;;;;;;;2.38;1.00;;;4.50;93.30;;;;;;5014691;28;20485;-75
2021/12/05 01:03:23;;;;;;;1.58;0.82;;;4.50;93.60;;;;;;5014972;28;20363;-76
2021/12/05 01:16:32;;;;;;;3.40;1.10;;;4.40;93.20;;;;;;4998369;28;20065;-75
2021/12/05 01:18:58;;;;;;;3.90;0.90;;;4.40;93.20;;;;;;4979828;28;20092;-75
2021/12/05 01:21:25;;;;;;;1.17;0.70;;;4.40;93.20;;;;;;5010109;28;20042;-76
2021/12/05 01:24:07;;;;;;;1.50;0.80;;;4.40;93.20;;;;;;5013223;28;20084;-75
2021/12/05 01:26:43;;;;;;;1.75;0.80;;;4.40;93.20;;;;;;4997833;28;20045;-76
2021/12/05 01:29:23;;;;;;;4.22;1.30;;;4.40;93.10;;;;;;5012166;28;20052;-75
2021/12/05 01:32:09;;;;;;;4.20;0.88;;;4.50;93.10;;;;;;5014099;28;20099;-76
2021/12/05 01:34:48;;;;;;;2.38;0.90;;;4.50;93.10;;;;;;5014655;28;20091;-75
2021/12/05 01:37:25;;;;;;;2.80;0.90;;;4.50;93.10;;;;;;5013507;28;20085;-75
2021/12/05 01:45:54;;;;;;;2.53;1.02;;;4.50;93.10;;;;;;5010077;28;20096;-76
2021/12/05 01:51:14;;;;;;;2.42;0.80;;;4.40;93.00;;;;;;5012746;28;20050;-75
2021/12/05 01:59:11;;;;;;;3.53;1.08;;;4.50;93.00;;;;;;5009303;28;20045;-76
2021/12/05 02:02:11;;;;;;;1.63;0.65;;;4.50;93.00;;;;;;5014287;28;20049;-75
2021/12/05 02:09:58;;;;;;;1.88;0.80;;;4.40;93.00;;;;;;5023207;28;20050;-75
2021/12/05 02:15:11;;;;;;;1.75;0.90;;;4.40;92.90;;;;;;5013607;28;20049;-75
2021/12/05 02:15:37;;;;;;;2.20;0.90;;;4.50;92.90;;;;;;5013101;28;20046;-76
2021/12/05 02:31:44;;;;;;;3.38;1.23;;;4.40;92.90;;;;;;4996233;28;20456;-75
2021/12/05 02:34:20;;;;;;;3.38;0.98;;;4.40;92.90;;;;;;5011783;28;20038;-75
2021/12/05 02:39:34;;;;;;;2.72;1.02;;;4.40;92.90;;;;;;5012394;28;20057;-75
2021/12/05 02:42:24;;;;;;;2.38;1.10;;;4.40;92.80;;;;;;5013756;28;20095;-75
2021/12/05 02:44:46;;;;;;;2.95;1.10;;;4.30;92.80;;;;;;5017672;28;20049;-75
2021/12/05 02:47:15;;;;;;;2.28;0.85;;;4.30;92.90;;;;;;5015586;28;20100;-75
2021/12/05 02:49:45;;;;;;;3.28;1.17;;;4.30;92.90;;;;;;5013558;28;20053;-75
2021/12/05 02:52:27;;;;;;;2.47;1.30;;;4.20;92.90;;;;;;5013996;28;20132;-75
2021/12/05 02:55:05;;;;;;;2.35;1.02;;;4.30;92.90;;;;;;5014258;28;20054;-75
2021/12/05 02:57:48;;;;;;;3.13;1.10;;;4.30;92.90;;;;;;5015676;28;20041;-75
2021/12/05 03:00:21;;;;;;;2.83;1.10;;;4.20;92.90;;;;;;5017214;28;20037;-75
2021/12/05 03:02:52;;;;;;;3.35;1.10;;;4.20;92.90;;;;;;5012072;28;20042;-75
2021/12/05 03:05:21;;;;;;;1.92;0.88;;;4.20;92.90;;;;;;5013127;28;20128;-75
2021/12/05 03:07:49;;;;;;;3.28;1.10;;;4.20;92.90;;;;;;5014630;28;20041;-75
2021/12/05 03:10:18;;;;;;;2.70;0.90;;;4.20;92.90;;;;;;5014377;28;20504;-75
2021/12/05 03:12:46;;;;;;;1.40;0.75;;;4.20;92.90;;;;;;5013413;28;20053;-75
2021/12/05 03:15:14;;;;;;;3.03;1.40;;;4.20;92.90;;;;;;5013070;28;20103;-75
2021/12/05 03:17:41;;;;;;;1.42;0.70;;;4.20;92.90;;;;;;5014107;28;20508;-75
2021/12/05 03:20:08;;;;;;;2.13;0.80;;;4.10;92.90;;;;;;5011866;28;20034;-75
2021/12/05 03:22:34;;;;;;;3.67;0.88;;;4.10;92.90;;;;;;5011315;28;20038;-75
2021/12/05 03:25:00;;;;;;;1.73;0.70;;;4.10;93.00;;;;;;5014129;28;20481;-75
2021/12/05 03:27:26;;;;;;;3.10;0.68;;;4.00;93.00;;;;;;5013540;28;20104;-75
2021/12/05 03:29:52;;;;;;;2.10;0.80;;;4.00;93.00;;;;;;5013357;28;20038;-75
2021/12/05 03:32:18;;;;;;;1.98;0.73;;;4.00;93.00;;;;;;5012739;28;20042;-75
2021/12/05 03:34:44;;;;;;;1.83;0.73;;;4.00;93.00;;;;;;4980239;28;20038;-75
2021/12/05 03:37:10;;;;;;;1.40;0.60;;;4.00;93.10;;;;;;5014041;28;20046;-75
2021/12/05 03:39:37;;;;;;;1.13;0.57;;;3.90;93.10;;;;;;5010540;28;20392;-75
2021/12/05 03:42:04;;;;;;;1.88;0.68;;;3.90;93.10;;;;;;5012190;28;20140;-75
2021/12/05 03:44:32;;;;;;;0.88;0.50;;;3.90;93.10;;;;;;5012642;28;20480;-75
2021/12/05 03:47:00;;;;;;;2.28;0.90;;;3.80;93.10;;;;;;5013626;28;20394;-75
2021/12/05 03:49:28;;;;;;;1.73;0.77;;;3.90;93.10;;;;;;5013888;28;20056;-75
2021/12/05 03:51:59;;;;;;;5.00;0.80;;;3.90;93.10;;;;;;4994270;28;20042;-75
2021/12/05 03:54:25;;;;;;;;;;;3.80;93.10;;;;;;4980905;28;20034;-75
2021/12/05 03:56:51;;;;;;;1.10;0.73;;;3.90;93.10;;;;;;5012351;28;19935;-75
2021/12/05 03:59:18;;;;;;;1.88;0.70;;;3.90;93.10;;;;;;5010098;28;20046;-75
2021/12/05 04:01:46;;;;;;;2.38;0.70;;;3.90;93.10;;;;;;5012540;28;20034;-75
2021/12/05 04:04:12;;;;;;;1.73;0.60;;;3.90;93.10;;;;;;5012086;28;20038;-75
2021/12/05 04:06:38;;;;;;;3.40;0.90;;;3.90;93.00;;;;;;5012465;28;20100;-75
2021/12/05 04:09:08;;;;;;;1.20;0.55;;;3.90;93.00;;;;;;5010213;28;20446;-76
2021/12/05 04:11:40;;;;;;;2.08;0.68;;;4.00;93.10;;;;;;5010034;28;20053;-75
2021/12/05 04:14:10;;;;;;;2.30;0.73;;;4.00;93.00;;;;;;5012357;28;20050;-75
2021/12/05 04:16:36;;;;;;;2.08;0.60;;;4.00;93.00;;;;;;5010018;28;20050;-76
2021/12/05 04:19:04;;;;;;;1.88;0.70;;;4.00;93.00;;;;;;5009940;28;20033;-76
2021/12/05 04:21:31;;;;;;;1.48;0.50;;;4.00;93.00;;;;;;5009044;28;20132;-75
2021/12/05 04:23:59;;;;;;;2.17;0.60;;;4.00;93.00;;;;;;5008694;28;20378;-76
2021/12/05 04:26:26;;;;;;;2.05;0.60;;;4.00;93.00;;;;;;5012057;28;20435;-75
2021/12/05 04:28:52;;;;;;;1.33;0.70;;;4.00;93.00;;;;;;5011221;28;20049;-77
2021/12/05 04:31:21;;;;;;;2.22;0.65;;;4.00;92.90;;;;;;5012165;28;20559;-75
2021/12/05 04:33:48;;;;;;;3.30;0.65;;;4.10;93.00;;;;;;5012351;28;20100;-75
2021/12/05 04:36:14;;;;;;;1.20;0.60;;;4.10;92.90;;;;;;5010596;28;20115;-75
2021/12/05 04:38:40;;;;;;;1.85;0.80;;;4.10;93.00;;;;;;5012371;28;20045;-75
2021/12/05 04:41:06;;;;;;;1.75;0.80;;;4.10;92.90;;;;;;5011903;28;20041;-75
2021/12/05 04:43:38;;;;;;;1.45;0.70;;;4.10;92.90;;;;;;5012980;28;20026;-75
2021/12/05 04:46:07;;;;;;;1.35;0.75;;;4.10;92.90;;;;;;5012317;28;20038;-75
2021/12/05 04:48:33;;;;;;;2.78;0.98;;;4.10;92.90;;;;;;5010873;28;20030;-75
2021/12/05 04:50:59;;;;;;;2.05;0.90;;;4.10;92.90;;;;;;5013569;28;20104;-75
2021/12/05 04:53:27;;;;;;;0.75;0.63;;;4.20;92.90;;;;;;5012594;28;20061;-75
2021/12/05 04:55:54;;;;;;;2.58;0.80;;;4.30;92.90;;;;;;5012727;28;20070;-75
2021/12/05 04:58:20;;;;;;;2.03;0.85;;;4.10;92.90;;;;;;5012259;28;20566;-75
2021/12/05 05:00:46;;;;;;;1.63;0.63;;;4.20;92.90;;;;;;5013203;28;20128;-75
2021/12/05 05:03:13;;;;;;;1.40;0.80;;;4.10;92.90;;;;;;5011548;28;20054;-75
2021/12/05 05:05:46;;;;;;;2.40;0.95;;;4.20;92.90;;;;;;5011809;28;20057;-75
2021/12/05 05:08:12;;;;;;;1.35;0.80;;;4.20;92.90;;;;;;5013033;28;20041;-75
2021/12/05 05:10:38;;;;;;;3.22;0.90;;;4.20;92.90;;;;;;4996178;28;20129;-75
2021/12/05 05:13:04;;;;;;;1.27;0.57;;;4.30;92.90;;;;;;5012029;28;20127;-75
2021/12/05 05:15:31;;;;;;;1.92;0.98;;;4.30;92.90;;;;;;5013427;28;20044;-75
2021/12/05 05:17:59;;;;;;;0.70;0.70;;;4.20;92.80;;;;;;5012853;28;20076;-75
2021/12/05 05:20:35;;;;;;;1.80;0.90;;;4.20;92.80;;;;;;5011955;28;20050;-75
2021/12/05 05:26:28;;;;;;;1.77;0.90;;;4.30;92.80;;;;;;5011332;28;20353;-75
2021/12/05 05:39:54;;;;;;;2.05;1.08;;;4.40;92.70;;;;;;5010432;28;20074;-75
2021/12/05 05:47:53;;;;;;;1.77;1.10;;;4.50;92.80;;;;;;5015331;28;20488;-75
2021/12/05 05:50:20;;;;;;;1.10;0.85;;;4.60;92.80;;;;;;5016345;28;20052;-75
2021/12/05 05:52:47;;;;;;;1.50;0.80;;;4.50;92.80;;;;;;5016478;28;20120;-75
2021/12/05 05:55:14;;;;;;;1.35;0.80;;;4.50;92.80;;;;;;5015597;28;20088;-75
2021/12/05 05:57:46;;;;;;;1.35;0.95;;;4.50;92.70;;;;;;5016235;28;20129;-75
2021/12/05 06:00:21;;;;;;;2.65;0.98;;;4.60;92.70;;;;;;5014032;28;20038;-75
2021/12/05 06:05:28;;;;;;;;;;;4.60;92.70;;;;;;5017497;28;20129;-75
2021/12/05 06:07:54;;;;;;;0.77;0.63;;;4.60;92.70;;;;;;5015438;28;20352;-75
2021/12/05 06:10:23;;;;;;;1.23;0.80;;;4.60;92.70;;;;;;5002648;28;20099;-75
2021/12/05 06:12:49;;;;;;;1.30;0.80;;;4.60;92.70;;;;;;5019895;28;20204;-75
2021/12/05 06:15:17;;;;;;;2.15;0.90;;;4.60;92.70;;;;;;5021057;28;20077;-74
2021/12/05 06:17:43;;;;;;;0.70;0.55;;;4.60;92.70;;;;;;5017450;28;20081;-74
2021/12/05 06:20:13;;;;;;;0.98;0.50;;;4.60;92.70;;;;;;5018300;28;20060;-75
2021/12/05 06:22:39;;;;;;;0.85;0.57;;;4.60;92.70;;;;;;5020679;28;20463;-75
2021/12/05 06:25:09;;;;;;;0.98;0.60;;;4.60;92.70;;;;;;5019901;28;20045;-75
2021/12/05 06:27:35;;;;;;;0.63;0.50;;;4.60;92.70;;;;;;5020616;28;20049;-75
2021/12/05 06:30:09;;;;;;;0.73;0.60;;;4.60;92.70;;;;;;5003539;28;20042;-75
2021/12/05 06:36:49;;;;;;;0.77;0.60;;;4.70;92.70;;;;;;5019349;28;20045;-75
2021/12/05 06:38:26;;;;;;;0.88;0.50;;;4.60;92.70;;;;;;5015793;28;20120;-75
2021/12/05 06:41:10;;;;;;;1.52;0.40;;;4.60;92.80;;;;;;5015942;28;20408;-75
2021/12/05 06:46:25;;;;;;;0.65;0.43;;;4.70;92.80;;;;;;4999718;28;20041;-75
2021/12/05 06:48:51;;;;;;;1.23;0.55;;;4.60;92.80;;;;;;5017516;28;20041;-75
2021/12/05 06:51:21;;;;;;;2.40;0.70;;;4.60;92.90;;;;;;4999244;28;20519;-75
2021/12/05 06:53:47;;;;;;;1.23;0.70;;;4.60;92.80;;;;;;5000349;28;20065;-75
2021/12/05 06:56:13;;;;;;;0.98;0.60;;;4.60;92.80;;;;;;5018420;28;20072;-75
2021/12/05 06:58:39;;;;;;;0.98;0.70;;;4.60;92.80;;;;;;5004640;28;20136;-75
2021/12/05 07:01:07;;;;;;;0.50;0.50;;;4.60;92.90;;;;;;5020578;28;20046;-75
2021/12/05 07:03:34;;;;;;;0.35;0.35;;;4.60;92.80;;;;;;5017547;28;20072;-75
2021/12/05 07:06:07;;;;;;;1.67;0.70;;;4.60;92.80;;;;;;5021068;28;20105;-75
2021/12/05 07:08:36;;;;;;;0.35;0.35;;;4.60;92.90;;;;;;5016305;28;20121;-75
2021/12/05 07:11:16;;;;;;;0.80;0.50;;;4.60;92.90;;;;;;5016308;28;20045;-75
2021/12/05 07:16:32;;;;;;;0.40;0.40;;;4.60;92.90;;;;;;5018920;28;20060;-75
2021/12/05 07:19:27;;;;;;;1.83;0.70;;;4.70;92.90;;;;;;5021085;28;20045;-75
2021/12/05 07:21:53;;;;;;;1.77;0.85;;;4.60;92.80;;;;;;5019814;28;20058;-75
2021/12/05 07:40:19;;;;;;;1.15;0.80;;;4.60;92.80;;;;;;5005103;28;20056;-75
2021/12/05 07:40:31;;;;;;;0.77;0.73;;;4.60;92.80;;;;;;5021277;28;20061;-74
2021/12/05 07:43:03;;;;;;;1.15;0.80;;;4.70;92.80;;;;;;5022482;28;20037;-74
2021/12/05 07:45:40;;;;;;;0.55;0.55;;;4.60;92.80;;;;;;5022074;28;20057;-74
2021/12/05 07:48:12;;;;;;;1.25;0.80;;;4.60;92.80;;;;;;5017573;28;20132;-74
2021/12/05 07:50:49;;;;;;;0.95;0.82;;;4.60;92.70;;;;;;5015383;28;20042;-74
2021/12/05 07:53:23;;;;;;;0.75;0.60;;;4.60;92.70;;;;;;5016855;28;20033;-75
2021/12/05 07:55:53;;;;;;;0.70;0.68;;;4.60;92.80;;;;;;5016150;28;20041;-76
2021/12/05 07:58:46;;;;;;;1.08;0.90;;;4.60;92.80;;;;;;5016442;28;20123;-75
2021/12/05 08:14:42;;;;;;;1.23;0.63;;;4.60;92.80;;;;;;5018800;28;20116;-75
2021/12/05 08:17:16;;;;;;;1.17;0.90;;;4.50;92.80;;;;;;5004520;28;20560;-75
2021/12/05 08:19:41;;;;;;;0.93;0.70;;;4.60;92.80;;;;;;5020688;28;20116;-75
2021/12/05 08:22:08;;;;;;;0.50;0.50;;;4.60;92.80;;;;;;5017281;28;20073;-74
2021/12/05 08:24:36;;;;;;;0.60;0.60;;;4.60;92.90;;;;;;5003169;28;20485;-75
2021/12/05 08:27:05;;;;;;;0.70;0.60;;;4.60;92.90;;;;;;4994188;28;20042;-75
2021/12/05 08:29:39;;;;;;;1.55;0.73;;;4.60;92.80;;;;;;5009890;28;20122;-76
2021/12/05 08:32:19;;;;;;;0.52;0.50;;;4.60;92.90;;;;;;4995250;28;20473;-75
2021/12/05 08:45:48;;;;;;;0.17;0.17;;;4.60;92.90;;;;;;5192582;27;20183;-76
2021/12/05 09:20:56;;;;;;;1.08;0.60;;;4.70;92.80;;;;;;5170529;27;20034;-75
2021/12/05 09:23:43;;;;;;;0.65;0.60;;;4.70;92.90;;;;;;5170227;27;20038;-75
2021/12/05 09:26:22;;;;;;;1.50;0.70;;;4.80;92.90;;;;;;5168224;27;20047;-75
2021/12/05 09:29:15;;;;;;;0.50;0.40;;;4.70;92.80;;;;;;5170067;27;20118;-75
2021/12/05 09:40:08;;;;;;;0.95;0.70;;;4.80;92.80;;;;;;5153931;27;20054;-75
2021/12/05 10:01:23;;;;;;;1.10;0.70;;;4.80;92.80;;;;;;5139734;27;20941;-76
2021/12/05 10:09:48;;;;;;;1.40;0.63;;;4.90;92.80;;;;;;5155786;27;20397;-75
2021/12/05 10:15:14;;;;;;;1.00;0.70;;;5.10;92.80;;;;;;5139378;27;20067;-75
2021/12/05 10:26:22;;;;;;;1.05;0.80;;;5.10;92.70;;;;;;5156577;27;20039;-75
2021/12/05 10:27:09;;;;;;;1.60;0.98;;;5.00;92.70;;;;;;5156615;27;20106;-75
2021/12/05 10:38:05;;;;;;;0.73;0.68;;;5.10;92.70;;;;;;5156248;27;20090;-75
2021/12/05 10:40:39;;;;;;;0.73;0.65;;;5.10;92.70;;;;;;5158495;27;20066;-75
2021/12/05 10:43:15;;;;;;;1.13;0.70;;;5.20;92.80;;;;;;5137498;27;20088;-75
2021/12/05 10:45:46;;;;;;;0.95;0.50;;;5.10;92.80;;;;;;5137451;27;20050;-74
2021/12/05 10:48:25;;;;;;;0.83;0.60;;;5.10;92.80;;;;;;5137231;27;20047;-75
2021/12/05 10:50:56;;;;;;;1.10;0.80;;;5.20;92.80;;;;;;5120003;27;20269;-74
2021/12/05 10:53:39;;;;;;;0.98;0.70;;;5.30;92.90;;;;;;5137178;27;20045;-74
2021/12/05 10:56:35;;;;;;;1.13;0.70;;;5.30;92.90;;;;;;5154975;27;20596;-74
2021/12/05 10:59:19;;;;;;;0.82;0.60;;;5.40;92.90;;;;;;5139514;27;20062;-74
2021/12/05 11:01:50;;;;;;;0.50;0.50;;;5.50;92.80;;;;;;5119305;27;20045;-74
2021/12/05 11:04:27;;;;;;;0.90;0.65;;;5.50;92.70;;;;;;5119701;27;20042;-74
2021/12/05 11:06:57;;;;;;;1.33;0.80;;;5.50;92.70;;;;;;5119209;27;20053;-74
2021/12/05 11:09:34;;;;;;;0.80;0.60;;;5.70;92.70;;;;;;5155292;27;20034;-74
2021/12/05 11:12:08;;;;;;;0.93;0.70;;;5.60;92.70;;;;;;5136315;27;20051;-74
2021/12/05 11:14:38;;;;;;;0.85;0.65;;;5.50;92.60;;;;;;5136108;27;20039;-74
2021/12/05 11:17:08;;;;;;;0.85;0.60;;;5.60;92.70;;;;;;5136500;27;20030;-74
2021/12/05 11:19:49;;;;;;;1.70;1.00;;;5.60;92.70;;;;;;5154668;27;20078;-74
2021/12/05 11:22:21;;;;;;;0.60;0.60;;;5.60;92.70;;;;;;5136181;27;20466;-74
2021/12/05 11:24:53;;;;;;;2.20;0.60;;;5.60;92.70;;;;;;5136480;27;20051;-75
2021/12/05 11:27:23;;;;;;;1.50;0.90;;;5.60;92.70;;;;;;5136034;27;20061;-74
2021/12/05 11:30:05;;;;;;;1.40;0.80;;;5.60;92.70;;;;;;5135997;27;20074;-74
2021/12/05 11:32:37;;;;;;;;;;;5.50;92.70;;;;;;5154844;27;20118;-73
2021/12/05 11:35:22;;;;;;;1.90;1.23;;;5.40;92.70;;;;;;5154452;27;20045;-74
2021/12/05 11:37:52;;;;;;;1.40;0.95;;;5.50;92.70;;;;;;5154708;27;20042;-74
2021/12/05 11:40:19;;;;;;;1.75;1.20;;;5.50;92.70;;;;;;5135912;27;20047;-74
2021/12/05 11:42:56;;;;;;;1.33;0.90;;;5.50;92.70;;;;;;5154420;27;20049;-74
2021/12/05 11:45:22;;;;;;;1.73;1.17;;;5.50;92.70;;;;;;5154576;27;20374;-74
2021/12/05 11:47:47;;;;;;;1.65;1.10;;;5.50;92.70;;;;;;5154805;27;20122;-74
2021/12/05 11:50:18;;;;;;;1.60;0.90;;;5.60;92.70;;;;;;5135833;27;20396;-74
2021/12/05 11:52:44;;;;;;;1.47;1.00;;;5.60;92.70;;;;;;5154031;27;20053;-73
2021/12/05 11:55:23;;;;;;;1.45;0.85;;;5.60;92.70;;;;;;5135595;27;20280;-73
2021/12/05 11:57:49;;;;;;;1.63;1.00;;;5.60;92.70;;;;;;5154594;27;20518;-74
2021/12/05 12:00:18;;;;;;;2.17;1.17;;;5.70;92.70;;;;;;5119163;27;20064;-74
2021/12/05 12:02:46;;;;;;;1.60;1.00;;;5.70;92.60;;;;;;5119837;27;20117;-74
2021/12/05 12:05:20;;;;;;;2.10;0.93;;;5.70;92.70;;;;;;5136832;27;20095;-74
2021/12/05 12:08:02;;;;;;;1.75;1.00;;;5.70;92.70;;;;;;5154154;27;20058;-74
2021/12/05 12:10:33;;;;;;;1.13;0.80;;;5.70;92.60;;;;;;5154827;27;20129;-75
2021/12/05 12:13:11;;;;;;;1.17;0.77;;;5.80;92.70;;;;;;5136270;27;20031;-74
2021/12/05 12:15:39;;;;;;;1.00;0.70;;;5.80;92.70;;;;;;5120647;27;20066;-74
2021/12/05 12:18:16;;;;;;;1.00;0.73;;;5.80;92.70;;;;;;5155123;27;20043;-74
2021/12/05 12:20:46;;;;;;;0.88;0.60;;;5.90;92.70;;;;;;5136465;27;20058;-74
2021/12/05 12:23:14;;;;;;;0.70;0.68;;;5.90;92.70;;;;;;5154910;27;20066;-74
2021/12/05 12:25:42;;;;;;;0.63;0.52;;;5.90;92.70;;;;;;5137198;27;20045;-74
2021/12/05 12:28:10;;;;;;;0.95;0.60;;;5.90;92.70;;;;;;5155780;27;20473;-74
2021/12/05 12:30:39;;;;;;;0.80;0.70;;;6.00;92.70;;;;;;5155285;27;20054;-74
2021/12/05 12:33:11;;;;;;;0.88;0.73;;;6.00;92.60;;;;;;5155629;27;20051;-74
2021/12/05 12:35:38;;;;;;;0.82;0.60;;;6.00;92.70;;;;;;5155150;27;20489;-74
2021/12/05 12:38:13;;;;;;;1.05;0.63;;;6.00;92.70;;;;;;5136628;27;20049;-74
2021/12/05 12:41:14;;;;;;;1.17;0.80;;;6.00;92.60;;;;;;5155180;27;20137;-74
2021/12/05 12:43:56;;;;;;;1.05;0.80;;;6.10;92.70;;;;;;5137133;27;20393;-74
2021/12/05 12:46:36;;;;;;;0.85;0.57;;;6.10;92.70;;;;;;5136814;27;20035;-74
2021/12/05 12:49:26;;;;;;;0.68;0.40;;;6.00;92.70;;;;;;5155360;27;20121;-74
2021/12/05 12:52:17;;;;;;;1.05;0.60;;;6.10;92.70;;;;;;5136776;27;20539;-74
2021/12/05 12:54:49;;;;;;;0.68;0.40;;;6.10;92.70;;;;;;5155499;27;20061;-74
2021/12/05 12:57:20;;;;;;;0.55;0.47;;;6.20;92.70;;;;;;5155960;27;20096;-75
2021/12/05 13:00:07;;;;;;;0.35;0.35;;;6.20;92.70;;;;;;5153859;27;20045;-74
2021/12/05 13:02:55;;;;;;;0.70;0.50;;;6.20;92.70;;;;;;5137038;27;20035;-75
2021/12/05 13:05:53;;;;;;;0.68;0.50;;;6.20;92.70;;;;;;5137747;27;20027;-75
2021/12/05 13:11:07;;;;;;;0.40;0.40;;;6.20;92.70;;;;;;5153909;27;20087;-76
2021/12/05 13:13:36;;;;;;;0.60;0.50;;;6.20;92.70;;;;;;5136607;27;20043;-77
2021/12/05 13:16:19;;;;;;;0.40;0.40;;;6.30;92.70;;;;;;5120134;27;20050;-76
2021/12/05 13:18:48;;;;;;;0.50;0.50;;;6.20;92.70;;;;;;5159827;27;20073;-76
2021/12/05 13:21:30;;;;;;;0.20;0.20;;;6.20;92.80;;;;;;5159846;27;20033;-76
2021/12/05 13:23:56;;;;;;;0.55;0.50;;;6.20;92.80;;;;;;5158915;27;20484;-76
2021/12/05 13:26:39;;;;;;;0.45;0.40;;;6.20;92.80;;;;;;5122754;27;20071;-76
2021/12/05 13:29:24;;;;;;;0.50;0.35;;;6.20;92.80;;;;;;5140122;27;20046;-77
2021/12/05 13:32:11;;;;;;;0.68;0.50;;;6.20;92.80;;;;;;5159186;27;20474;-76
2021/12/05 13:34:47;;;;;;;0.40;0.38;;;6.30;92.80;;;;;;5158961;27;20449;-76
2021/12/05 13:37:34;;;;;;;0.15;0.15;;;6.30;92.80;;;;;;5178427;27;20047;-77
2021/12/05 13:40:21;;;;;;;0.30;0.30;;;6.20;92.80;;;;;;5177502;27;20042;-78
2021/12/05 13:42:51;;;;;;;0.32;0.30;;;6.20;92.80;;;;;;5178943;27;20511;-76
2021/12/05 13:45:31;;;;;;;0.20;0.20;;;6.20;92.80;;;;;;5160506;27;20065;-77
2021/12/05 13:48:13;;;;;;;0.50;0.40;;;6.20;92.80;;;;;;5125907;27;20043;-77
2021/12/05 13:50:55;;;;;;;0.40;0.35;;;6.30;92.80;;;;;;5159990;27;20056;-77
2021/12/05 13:53:23;;;;;;;0.40;0.40;;;6.30;92.80;;;;;;5143851;27;20018;-76
2021/12/05 13:56:02;;;;;;;0.40;0.30;;;6.30;92.80;;;;;;5159149;27;20064;-76
2021/12/05 13:58:40;;;;;;;0.50;0.28;;;6.30;92.80;;;;;;5176919;27;20039;-76
2021/12/05 14:01:31;;;;;;;0.43;0.40;;;6.30;92.80;;;;;;5160232;27;20057;-76
2021/12/05 14:04:27;;;;;;;0.30;0.30;;;6.30;92.80;;;;;;5144345;27;20046;-78
2021/12/05 14:07:01;;;;;;;0.30;0.30;;;6.30;92.70;;;;;;5147148;27;20401;-77
2021/12/05 14:09:47;;;;;;;0.40;0.30;;;6.30;92.70;;;;;;5125919;27;20055;-77
2021/12/05 14:12:18;;;;;;;0.50;0.50;;;6.30;93.00;;;;;;5160258;27;20049;-76
2021/12/05 14:14:53;;;;;;;1.08;0.45;;;6.30;92.70;;;;;;5160702;27;20043;-76
2021/12/05 14:17:26;;;;;;;0.50;0.40;;;6.30;92.70;;;;;;5160064;27;20106;-77
2021/12/05 14:19:57;;;;;;;0.50;0.40;;;6.20;92.70;;;;;;5140472;27;20041;-77
2021/12/05 14:22:25;;;;;;;0.50;0.30;;;6.20;92.80;;;;;;5158693;27;20039;-77
2021/12/05 14:24:54;;;;;;;0.52;0.50;;;6.20;92.80;;;;;;5140628;27;20039;-77
2021/12/05 14:27:24;;;;;;;0.30;0.30;;;6.10;92.80;;;;;;5159212;27;20054;-77
2021/12/05 14:29:52;;;;;;;0.47;0.40;;;6.10;92.80;;;;;;5159232;27;20060;-77
2021/12/05 14:32:24;;;;;;;0.43;0.43;;;6.10;92.80;;;;;;5177839;27;20035;-77
2021/12/05 14:34:53;;;;;;;0.90;0.50;;;6.10;92.90;;;;;;5155947;27;20129;-77
2021/12/05 14:37:21;;;;;;;0.60;0.50;;;6.10;92.90;;;;;;5151981;27;20043;-78
2021/12/05 14:39:50;;;;;;;0.45;0.40;;;6.10;92.90;;;;;;5136056;27;20400;-77
2021/12/05 14:42:20;;;;;;;0.57;0.55;;;6.10;92.90;;;;;;5152282;27;20039;-77
2021/12/05 14:44:49;;;;;;;0.50;0.50;;;6.00;92.90;;;;;;5171353;27;20106;-77
2021/12/05 14:47:18;;;;;;;0.63;0.50;;;6.00;92.90;;;;;;5170530;27;20378;-78
2021/12/05 14:49:50;;;;;;;1.10;0.45;;;6.00;92.90;;;;;;5151745;27;20078;-78
2021/12/05 14:52:20;;;;;;;0.50;0.40;;;6.00;92.90;;;;;;5168529;27;20095;-77
2021/12/05 14:54:47;;;;;;;0.40;0.37;;;5.90;92.90;;;;;;5149126;27;20049;-78
2021/12/05 14:57:16;;;;;;;0.55;0.43;;;5.90;92.90;;;;;;5169063;27;20283;-77
2021/12/05 14:59:44;;;;;;;0.50;0.50;;;5.90;92.90;;;;;;5170500;27;20121;-78
2021/12/05 15:02:11;;;;;;;0.98;0.60;;;5.90;92.90;;;;;;5130239;27;20042;-78
2021/12/05 15:04:41;;;;;;;0.77;0.55;;;5.90;92.90;;;;;;5143517;27;20042;-77
2021/12/05 15:07:07;;;;;;;0.70;0.60;;;5.90;92.90;;;;;;5104323;27;20041;-78
2021/12/05 15:09:37;;;;;;;0.93;0.60;;;5.90;92.90;;;;;;5103243;27;20129;-78
2021/12/05 15:12:08;;;;;;;2.28;0.80;;;5.80;92.90;;;;;;5125453;27;20035;-77
2021/12/05 15:14:36;;;;;;;0.85;0.60;;;5.80;92.90;;;;;;5151585;27;20046;-77
2021/12/05 15:17:17;;;;;;;0.73;0.50;;;5.80;92.90;;;;;;5163441;27;20042;-77
2021/12/05 15:19:47;;;;;;;0.55;0.50;;;5.70;92.90;;;;;;5145184;27;20484;-77
2021/12/05 15:22:13;;;;;;;0.40;0.38;;;5.70;92.90;;;;;;5142974;27;20050;-76
2021/12/05 15:24:47;;;;;;;0.47;0.30;;;5.70;92.90;;;;;;5159503;27;20043;-77
2021/12/05 15:27:16;;;;;;;1.90;0.35;;;5.70;92.90;;;;;;5159236;27;20496;-77
2021/12/05 15:29:49;;;;;;;0.75;0.50;;;5.70;92.90;;;;;;5139641;27;20070;-77
2021/12/05 15:32:19;;;;;;;0.68;0.40;;;5.70;92.90;;;;;;5140213;27;20073;-77
2021/12/05 15:34:45;;;;;;;0.57;0.50;;;5.60;92.90;;;;;;5138872;27;20504;-77
2021/12/05 15:37:12;;;;;;;0.40;0.32;;;5.70;93.00;;;;;;5136262;27;20031;-77
2021/12/05 15:39:43;;;;;;;0.50;0.40;;;5.60;92.90;;;;;;5135916;27;20034;-77
2021/12/05 15:42:15;;;;;;;1.13;0.68;;;5.70;93.00;;;;;;5135580;27;20046;-77
2021/12/05 15:44:42;;;;;;;1.38;0.45;;;5.60;92.90;;;;;;5135955;27;20054;-77
2021/12/05 15:47:14;;;;;;;0.52;0.50;;;5.60;93.00;;;;;;5136052;27;20034;-77
2021/12/05 15:49:43;;;;;;;0.60;0.43;;;5.60;93.00;;;;;;5123005;27;20062;-77
2021/12/05 15:52:09;;;;;;;0.50;0.50;;;5.50;92.90;;;;;;5154345;27;20110;-77
2021/12/05 15:54:38;;;;;;;0.85;0.43;;;5.60;93.00;;;;;;5149565;27;20087;-77
2021/12/05 15:57:21;;;;;;;0.50;0.40;;;5.50;93.00;;;;;;5155943;27;20126;-75
2021/12/05 15:59:47;;;;;;;0.52;0.50;;;5.50;93.00;;;;;;5136299;27;20087;-75
2021/12/05 16:02:18;;;;;;;0.60;0.60;;;5.50;92.90;;;;;;5135792;27;20095;-75
2021/12/05 16:04:44;;;;;;;1.23;0.90;;;5.50;93.00;;;;;;5136092;27;20030;-77
2021/12/05 16:07:11;;;;;;;0.85;0.65;;;5.50;92.90;;;;;;5118625;27;20057;-76
2021/12/05 16:09:39;;;;;;;1.25;0.57;;;5.50;93.00;;;;;;5118978;27;20130;-74
2021/12/05 16:12:13;;;;;;;0.55;0.55;;;5.50;93.00;;;;;;5135553;27;20070;-74
2021/12/05 16:14:43;;;;;;;0.80;0.70;;;5.50;93.00;;;;;;5154014;27;20050;-75
2021/12/05 16:17:22;;;;;;;1.63;0.93;;;5.40;92.90;;;;;;5118874;27;20031;-75
2021/12/05 16:20:14;;;;;;;1.42;1.00;;;5.50;93.00;;;;;;5118708;27;20039;-75
2021/12/05 16:22:59;;;;;;;0.63;0.50;;;5.40;92.90;;;;;;5135112;27;20091;-75
2021/12/05 16:25:26;;;;;;;0.75;0.68;;;5.50;92.90;;;;;;5154165;27;20546;-75
2021/12/05 16:27:56;;;;;;;1.05;0.77;;;5.40;92.90;;;;;;5135225;27;20086;-75
2021/12/05 16:30:25;;;;;;;0.93;0.70;;;5.50;92.90;;;;;;5135711;27;20070;-74
2021/12/05 16:32:52;;;;;;;0.63;0.52;;;5.40;92.90;;;;;;5118215;27;20066;-74
2021/12/05 16:35:37;;;;;;;0.57;0.40;;;5.30;92.90;;;;;;5153555;27;20117;-75
2021/12/05 16:38:28;;;;;;;1.13;0.75;;;5.40;92.90;;;;;;5153698;27;20137;-75
2021/12/05 16:41:03;;;;;;;0.93;0.70;;;5.50;92.90;;;;;;5135460;27;20041;-75
2021/12/05 16:43:31;;;;;;;0.68;0.50;;;5.30;92.90;;;;;;5153555;27;20047;-75
2021/12/05 16:46:04;;;;;;;0.75;0.43;;;5.30;92.90;;;;;;5135506;27;20067;-75
2021/12/05 16:48:33;;;;;;;1.13;0.60;;;5.40;92.90;;;;;;5117903;27;20072;-75
2021/12/05 16:51:21;;;;;;;0.40;0.40;;;5.40;92.90;;;;;;5153842;27;20046;-75
2021/12/05 16:53:50;;;;;;;0.50;0.40;;;5.40;92.90;;;;;;5153342;27;20228;-75
2021/12/05 16:56:44;;;;;;;1.35;0.60;;;5.40;92.90;;;;;;5120932;27;20038;-75
2021/12/05 16:59:15;;;;;;;1.15;0.77;;;5.30;92.90;;;;;;5139030;27;20185;-75
2021/12/05 17:01:41;;;;;;;0.70;0.55;;;5.30;92.90;;;;;;5138583;27;20095;-75
2021/12/05 17:04:08;;;;;;;1.95;0.90;;;5.30;92.90;;;;;;5157390;27;20031;-75
2021/12/05 17:06:52;;;;;;;1.17;0.60;;;5.30;92.90;;;;;;5157251;27;20411;-75
2021/12/05 17:09:19;;;;;;;1.13;0.77;;;5.30;92.90;;;;;;5138591;27;20126;-75
2021/12/05 17:11:44;;;;;;;1.02;0.73;;;5.30;92.90;;;;;;5121465;27;20511;-75
2021/12/05 17:14:22;;;;;;;1.20;0.80;;;5.30;92.90;;;;;;5138397;27;20043;-75
2021/12/05 17:16:48;;;;;;;1.38;0.80;;;5.30;92.90;;;;;;5140256;27;20049;-75
2021/12/05 17:19:16;;;;;;;1.58;0.85;;;5.30;92.90;;;;;;5151508;27;20070;-76
2021/12/05 17:21:47;;;;;;;3.20;1.20;;;5.20;92.80;;;;;;5170248;27;20039;-73
2021/12/05 17:24:19;;;;;;;1.10;0.98;;;5.30;92.80;;;;;;5175208;27;20042;-76